createdAt,value
2022-12-15T00:01:51.829Z,76.60
2022-12-15T00:07:14.695Z,70.30
2022-12-15T00:12:38.970Z,63.60
2022-12-15T00:18:03.245Z,78.70
2022-12-15T00:23:31.587Z,91.90
2022-12-15T00:34:20.188Z,88.20
2022-12-15T00:39:25.622Z,83.70
2022-12-15T00:44:30.237Z,95.30
2022-12-15T00:49:54.085Z,80.00
2022-12-15T00:55:17.891Z,83.60
2022-12-15T01:00:42.638Z,94.40
2022-12-15T01:06:04.980Z,102.50
2022-12-15T01:11:28.236Z,107.70
2022-12-15T01:16:52.113Z,102.30
2022-12-15T01:21:57.141Z,85.90
2022-12-15T01:27:02.440Z,99.40
2022-12-15T01:32:07.045Z,99.30
2022-12-15T01:37:11.494Z,105.90
2022-12-15T01:42:16.546Z,104.30
2022-12-15T01:47:26.077Z,96.90
2022-12-15T01:52:31.504Z,94.00
2022-12-15T01:57:38.296Z,95.50
2022-12-15T02:02:43.056Z,91.90
2022-12-15T02:07:47.032Z,86.40
2022-12-15T02:13:07.493Z,73.40
2022-12-15T02:18:23.294Z,74.90
2022-12-15T02:23:53.235Z,78.40
2022-12-15T02:29:09.311Z,84.10
2022-12-15T02:34:24.363Z,82.60
2022-12-15T02:39:29.868Z,83.10
2022-12-15T02:44:54.988Z,80.60
2022-12-15T02:50:31.492Z,73.90
2022-12-15T02:55:40.742Z,71.60
2022-12-15T03:00:59.148Z,73.20
2022-12-15T03:06:06.244Z,77.30
2022-12-15T03:11:12.486Z,78.40
2022-12-15T03:16:17.086Z,68.50
2022-12-15T03:21:22.307Z,70.20
2022-12-15T03:26:26.945Z,80.50
2022-12-15T03:31:30.670Z,78.00
2022-12-15T03:36:35.530Z,77.80
2022-12-15T03:41:40.317Z,77.60
2022-12-15T03:46:46.006Z,73.20
2022-12-15T03:51:49.507Z,83.10
2022-12-15T03:56:54.494Z,69.20
2022-12-15T04:01:59.921Z,82.00
2022-12-15T04:07:04.926Z,82.70
2022-12-15T04:12:13.194Z,80.30
2022-12-15T04:17:18.257Z,77.50
2022-12-15T04:22:21.919Z,80.40
2022-12-15T04:27:46.316Z,97.00
2022-12-15T04:33:11.195Z,80.80
2022-12-15T04:38:34.167Z,78.30
2022-12-15T04:44:00.082Z,82.60
2022-12-15T04:49:23.663Z,81.20
2022-12-15T04:54:47.256Z,80.20
2022-12-15T05:00:11.891Z,88.00
2022-12-15T05:05:34.448Z,85.90
2022-12-15T05:10:56.527Z,88.30
2022-12-15T05:16:18.463Z,78.30
2022-12-15T05:21:41.319Z,98.60
2022-12-15T05:27:05.146Z,76.00
2022-12-15T05:32:10.233Z,80.40
2022-12-15T05:37:14.612Z,74.20
2022-12-15T05:42:19.272Z,79.60
2022-12-15T05:47:24.238Z,82.60
2022-12-15T05:52:27.762Z,91.60
2022-12-15T05:57:31.615Z,94.70
2022-12-15T06:02:36.354Z,95.20
2022-12-15T06:07:40.630Z,93.70
2022-12-15T06:12:45.496Z,81.00
2022-12-15T06:17:49.931Z,94.10
2022-12-15T06:22:53.936Z,82.40
2022-12-15T06:28:01.710Z,88.20
2022-12-15T06:33:07.917Z,91.70
2022-12-15T06:38:12.647Z,75.70
2022-12-15T06:43:17.527Z,83.90
2022-12-15T06:48:21.867Z,91.70
2022-12-15T06:53:26.144Z,102.90
2022-12-15T06:58:31.248Z,88.00
2022-12-15T07:03:37.353Z,68.30
2022-12-15T07:08:42.110Z,90.50
2022-12-15T07:13:50.132Z,92.50
2022-12-15T07:23:59.171Z,95.20
2022-12-15T07:29:04.720Z,90.50
2022-12-15T07:34:09.877Z,84.10
2022-12-15T07:39:13.798Z,103.40
2022-12-15T07:44:19.243Z,108.80
2022-12-15T07:52:44.859Z,107.30
2022-12-15T07:57:49.075Z,92.20
2022-12-15T08:02:53.230Z,94.40
2022-12-15T08:07:59.173Z,94.60
2022-12-15T08:13:04.079Z,78.60
2022-12-15T08:18:09.797Z,92.10
2022-12-15T08:23:14.945Z,90.00
2022-12-15T08:28:19.066Z,91.60
2022-12-15T08:33:23.997Z,91.20
2022-12-15T08:38:28.255Z,94.00
2022-12-15T08:43:33.998Z,86.10
2022-12-15T08:48:39.209Z,99.10
2022-12-15T08:53:44.610Z,94.50
2022-12-15T08:58:51.174Z,97.00
2022-12-15T09:03:57.718Z,87.10
2022-12-15T09:09:05.182Z,95.40
2022-12-15T09:14:10.192Z,93.10
2022-12-15T09:19:15.118Z,96.90
2022-12-15T09:24:28.883Z,93.70
2022-12-15T09:29:38.699Z,103.30
2022-12-15T09:34:42.853Z,69.60
2022-12-15T09:39:46.734Z,105.80
2022-12-15T09:45:00.270Z,109.80
2022-12-15T09:50:11.319Z,112.50
2022-12-15T09:55:24.419Z,96.70
2022-12-15T10:00:52.576Z,111.20
2022-12-15T10:06:22.287Z,100.20
2022-12-15T10:11:50.635Z,118.00
2022-12-15T10:17:19.048Z,72.70
2022-12-15T10:22:31.883Z,102.60
2022-12-15T10:27:58.719Z,94.80
2022-12-15T10:33:06.591Z,116.20
2022-12-15T10:38:53.029Z,99.80
2022-12-15T10:43:59.072Z,119.60
2022-12-15T10:49:09.755Z,101.50
2022-12-15T10:54:16.809Z,88.40
2022-12-15T10:59:34.533Z,105.90
2022-12-15T11:04:38.865Z,101.90
2022-12-15T11:09:43.454Z,104.80
2022-12-15T11:14:52.467Z,89.10
2022-12-15T11:20:03.844Z,61.20
2022-12-15T11:25:36.614Z,87.00
2022-12-15T11:30:48.423Z,89.10
2022-12-15T11:36:20.813Z,87.10
2022-12-15T11:41:43.840Z,94.10
2022-12-15T11:46:57.710Z,92.20
2022-12-15T11:52:11.340Z,95.50
2022-12-15T11:57:42.014Z,98.70
2022-12-15T12:03:09.661Z,84.20
2022-12-15T12:08:36.506Z,92.60
2022-12-15T12:13:59.353Z,96.90
2022-12-15T12:19:21.170Z,102.90
2022-12-15T12:24:32.893Z,91.30
2022-12-15T12:30:01.246Z,109.70
2022-12-15T12:40:41.195Z,77.50
2022-12-15T12:46:26.512Z,97.30
2022-12-15T12:51:34.984Z,88.10
2022-12-15T12:56:43.854Z,89.80
2022-12-15T13:01:49.693Z,90.20
2022-12-15T13:06:56.512Z,83.80
2022-12-15T13:12:34.298Z,96.00
2022-12-15T13:17:43.044Z,98.70
2022-12-15T13:22:50.520Z,94.30
2022-12-15T13:28:01.639Z,90.50
2022-12-15T13:33:19.811Z,122.20
2022-12-15T13:43:50.507Z,85.40
2022-12-15T13:49:08.168Z,106.30
2022-12-15T13:54:19.436Z,91.30
2022-12-15T14:00:08.396Z,102.80
2022-12-15T14:05:13.689Z,98.00
2022-12-15T14:10:21.969Z,93.20
2022-12-15T14:20:42.219Z,85.00
2022-12-15T14:25:56.545Z,82.40
2022-12-15T14:31:05.634Z,82.70
2022-12-15T14:36:13.880Z,98.80
2022-12-15T14:41:41.131Z,86.90
2022-12-15T14:46:50.210Z,81.90
2022-12-15T14:52:07.331Z,79.10
2022-12-15T14:57:26.211Z,78.70
2022-12-15T15:02:31.186Z,74.40
2022-12-15T15:07:39.597Z,75.40
2022-12-15T15:12:46.343Z,82.30
2022-12-15T15:17:53.481Z,78.70
2022-12-15T15:23:12.562Z,74.30
2022-12-15T15:28:30.135Z,82.50
2022-12-15T15:33:35.412Z,69.90
2022-12-15T15:38:41.210Z,70.40
2022-12-15T15:43:44.781Z,54.10
2022-12-15T15:48:50.161Z,46.40
2022-12-15T15:53:58.549Z,48.30
2022-12-15T15:59:11.653Z,44.00
2022-12-15T16:04:15.093Z,43.90
2022-12-15T16:09:19.946Z,50.30
2022-12-15T16:14:24.431Z,38.90
2022-12-15T16:19:30.226Z,47.50
2022-12-15T16:24:37.610Z,47.70
2022-12-15T16:29:43.364Z,44.00
2022-12-15T16:34:47.516Z,38.50
2022-12-15T16:39:51.409Z,44.50
2022-12-15T16:44:56.417Z,46.90
2022-12-15T16:50:00.701Z,43.30
2022-12-15T16:55:05.705Z,33.60
2022-12-15T17:00:25.943Z,34.10
2022-12-15T17:05:34.880Z,41.10
2022-12-15T17:10:38.876Z,39.20
2022-12-15T17:15:43.267Z,45.40
2022-12-15T17:20:48.173Z,42.00
2022-12-15T17:31:25.971Z,34.50
2022-12-15T17:36:31.786Z,36.40
2022-12-15T17:41:58.611Z,41.90
2022-12-15T17:46:59.958Z,49.20
2022-12-15T17:52:17.110Z,47.30
2022-12-15T17:57:20.704Z,47.80
2022-12-15T18:02:24.811Z,78.40
2022-12-15T18:07:28.761Z,106.80
2022-12-15T18:12:32.560Z,50.80
2022-12-15T18:17:36.866Z,58.60
2022-12-15T18:22:40.898Z,56.70
2022-12-15T18:27:46.303Z,58.60
2022-12-15T18:32:56.654Z,57.50
2022-12-15T18:38:01.964Z,65.20
2022-12-15T18:43:17.561Z,57.60
2022-12-15T18:48:25.653Z,57.30
2022-12-15T18:53:33.026Z,72.00
2022-12-15T18:58:42.917Z,81.60
2022-12-15T19:03:46.646Z,68.20
2022-12-15T19:08:51.760Z,54.20
2022-12-15T19:13:56.946Z,63.50
2022-12-15T19:19:20.031Z,71.00
2022-12-15T19:24:49.622Z,77.00
2022-12-15T19:29:55.112Z,76.50
2022-12-15T19:34:59.838Z,53.90
2022-12-15T19:40:07.448Z,43.10
2022-12-15T19:50:26.376Z,46.30
2022-12-15T19:55:34.151Z,53.10
2022-12-15T20:00:40.608Z,50.10
2022-12-15T20:05:45.526Z,58.10
2022-12-15T20:10:52.083Z,54.00
2022-12-15T20:15:57.095Z,57.20
2022-12-15T20:21:02.190Z,59.40
2022-12-15T20:26:08.105Z,81.50
2022-12-15T20:31:18.900Z,71.00
2022-12-15T20:36:27.603Z,72.80
2022-12-15T20:41:32.128Z,64.90
2022-12-15T20:46:37.543Z,122.20
2022-12-15T20:51:42.985Z,139.30
2022-12-15T20:56:48.190Z,87.10
2022-12-15T21:01:53.311Z,86.40
2022-12-15T21:07:00.432Z,56.50
2022-12-15T21:12:25.677Z,75.80
2022-12-15T21:17:31.646Z,81.70
2022-12-15T21:22:36.321Z,97.90
2022-12-15T21:27:41.096Z,92.50
2022-12-15T21:32:47.151Z,98.90
2022-12-15T21:37:53.431Z,129.10
2022-12-15T21:43:06.826Z,122.70
2022-12-15T21:48:31.729Z,149.60
2022-12-15T21:53:36.610Z,95.00
2022-12-15T21:58:42.329Z,107.70
2022-12-15T22:03:54.630Z,132.70
2022-12-15T22:09:00.453Z,107.70
2022-12-15T22:14:35.502Z,121.80
2022-12-15T22:19:39.828Z,144.40
2022-12-15T22:24:44.637Z,144.70
2022-12-15T22:29:49.777Z,142.30
2022-12-15T22:34:53.715Z,139.10
2022-12-15T22:39:57.072Z,136.60
2022-12-15T22:45:00.633Z,117.20
2022-12-15T22:50:07.156Z,86.50
2022-12-15T22:55:16.658Z,103.30
2022-12-15T23:00:22.024Z,119.30
2022-12-15T23:05:27.268Z,112.80
2022-12-15T23:10:50.472Z,118.40
2022-12-15T23:16:14.777Z,128.30
2022-12-15T23:21:22.925Z,122.40
2022-12-15T23:26:28.202Z,103.30
2022-12-15T23:31:33.036Z,144.40
2022-12-15T23:36:38.085Z,93.70
2022-12-15T23:41:43.332Z,91.40
2022-12-15T23:46:48.902Z,106.60
2022-12-15T23:51:52.886Z,123.40
2022-12-15T23:56:59.579Z,137.10
